Time,TemperatureF,DewpointF,PressureIn,WindDirection,WindDirectionDegrees,WindSpeedMPH,WindSpeedGustMPH,Humidity,HourlyPrecipIn,Conditions,Clouds,dailyrainin,SolarRadiationWatts/m^2,SoftwareType,DateUTC
2013-03-02 00:11:00,47.0,31.0,-100.00,North,357,1.0,3.0,54,0.00,,,0.00,0.000000,,2013-03-02 08:11:00,
2013-03-02 00:21:00,47.0,31.0,-100.00,North,357,1.0,3.0,54,0.00,,,0.00,0.000000,,2013-03-02 08:21:00,
2013-03-02 00:32:00,47.0,31.0,-100.00,North,357,1.0,3.0,54,0.00,,,0.00,0.000000,,2013-03-02 08:32:00,
2013-03-02 00:42:00,47.0,31.0,-100.00,North,357,1.0,3.0,54,0.00,,,0.00,0.000000,,2013-03-02 08:42:00,
2013-03-02 00:51:00,45.0,32.0,-100.00,NE,39,1.0,2.0,59,0.00,,,0.00,0.000000,,2013-03-02 08:51:00,
2013-03-02 01:11:00,45.0,32.0,-100.00,NE,39,1.0,2.0,59,0.00,,,0.00,0.000000,,2013-03-02 09:11:00,
2013-03-02 01:21:00,45.0,32.0,-100.00,NE,39,1.0,2.0,59,0.00,,,0.00,0.000000,,2013-03-02 09:21:00,
2013-03-02 01:31:00,45.0,32.0,-100.00,NE,39,1.0,2.0,59,0.00,,,0.00,0.000000,,2013-03-02 09:31:00,
2013-03-02 01:42:00,45.0,32.0,-100.00,NE,39,1.0,2.0,59,0.00,,,0.00,0.000000,,2013-03-02 09:42:00,
2013-03-02 01:51:00,45.0,32.0,-100.00,SE,139,1.0,3.0,59,0.00,,,-99.99,0.000000,,2013-03-02 09:51:00,
2013-03-02 02:15:00,45.0,32.0,-100.00,SE,139,1.0,3.0,59,0.00,,,-99.99,0.000000,,2013-03-02 10:15:00,
2013-03-02 02:21:00,45.0,32.0,-100.00,SE,139,1.0,3.0,59,0.00,,,-99.99,0.000000,,2013-03-02 10:21:00,
2013-03-02 02:31:00,45.0,32.0,-100.00,SE,139,1.0,3.0,59,0.00,,,-99.99,0.000000,,2013-03-02 10:31:00,
2013-03-02 02:42:00,45.0,32.0,-100.00,SE,139,1.0,3.0,59,0.00,,,-99.99,0.000000,,2013-03-02 10:42:00,
2013-03-02 03:21:00,43.0,32.0,-100.00,ENE,61,1.0,3.0,64,0.00,,,0.00,0.000000,,2013-03-02 11:21:00,
2013-03-02 04:11:00,43.0,32.0,-100.00,WNW,298,1.0,2.0,65,0.00,,,-99.99,0.000000,,2013-03-02 12:11:00,
2013-03-02 04:21:00,43.0,32.0,-100.00,WNW,298,1.0,2.0,65,0.00,,,-99.99,0.000000,,2013-03-02 12:21:00,
2013-03-02 04:32:00,43.0,32.0,-100.00,WNW,298,1.0,2.0,65,0.00,,,-99.99,0.000000,,2013-03-02 12:32:00,
2013-03-02 04:51:00,43.0,33.0,-100.00,West,260,1.0,3.0,67,0.00,,,0.00,0.000000,,2013-03-02 12:51:00,
2013-03-02 05:11:00,43.0,33.0,-100.00,West,260,1.0,3.0,67,0.00,,,0.00,0.000000,,2013-03-02 13:11:00,
2013-03-02 05:21:00,43.0,33.0,-100.00,West,260,1.0,3.0,67,0.00,,,0.00,0.000000,,2013-03-02 13:21:00,
2013-03-02 05:31:00,43.0,33.0,-100.00,West,260,1.0,3.0,67,0.00,,,0.00,0.000000,,2013-03-02 13:31:00,
2013-03-02 05:41:00,43.0,33.0,-100.00,West,260,1.0,3.0,67,0.00,,,0.00,0.000000,,2013-03-02 13:41:00,
2013-03-02 06:21:00,44.0,34.0,-100.00,WNW,288,1.0,3.0,69,0.00,,,0.00,0.000000,,2013-03-02 14:21:00,
2013-03-02 06:51:00,42.0,33.0,-100.00,NNE,18,1.0,4.0,69,-99.99,,,0.00,3.000000,,2013-03-02 14:51:00,
2013-03-02 07:11:00,42.0,33.0,-100.00,NNE,18,1.0,4.0,69,-99.99,,,0.00,3.000000,,2013-03-02 15:11:00,
2013-03-02 07:21:00,42.0,33.0,-100.00,NNE,18,1.0,4.0,69,-99.99,,,0.00,3.000000,,2013-03-02 15:21:00,
2013-03-02 07:31:00,42.0,33.0,-100.00,NNE,18,1.0,4.0,69,-99.99,,,0.00,3.000000,,2013-03-02 15:31:00,
2013-03-02 07:41:00,42.0,33.0,-100.00,NNE,18,1.0,4.0,69,-99.99,,,0.00,3.000000,,2013-03-02 15:41:00,
2013-03-02 08:11:00,47.0,37.0,-100.00,SSW,200,1.0,2.0,67,0.00,,,0.00,58.000000,,2013-03-02 16:11:00,
2013-03-02 08:21:00,47.0,37.0,-100.00,SSW,200,1.0,2.0,67,0.00,,,0.00,58.000000,,2013-03-02 16:21:00,
2013-03-02 08:31:00,47.0,37.0,-100.00,SSW,200,1.0,2.0,67,0.00,,,0.00,58.000000,,2013-03-02 16:31:00,
2013-03-02 08:51:00,58.0,38.0,-100.00,ESE,121,2.0,5.0,47,0.00,,,0.00,205.000000,,2013-03-02 16:51:00,
2013-03-02 09:11:00,58.0,38.0,-100.00,ESE,121,2.0,5.0,47,0.00,,,0.00,205.000000,,2013-03-02 17:11:00,
2013-03-02 09:21:00,58.0,38.0,-100.00,ESE,121,2.0,5.0,47,0.00,,,0.00,205.000000,,2013-03-02 17:21:00,
2013-03-02 09:32:00,58.0,38.0,-100.00,ESE,121,2.0,5.0,47,0.00,,,0.00,205.000000,,2013-03-02 17:32:00,
2013-03-02 09:41:00,58.0,38.0,-100.00,ESE,121,2.0,5.0,47,0.00,,,0.00,205.000000,,2013-03-02 17:41:00,
2013-03-02 09:51:00,66.0,37.0,-100.00,ESE,113,2.0,5.0,34,0.00,,,0.00,236.000000,,2013-03-02 17:51:00,
2013-03-02 10:11:00,66.0,37.0,-100.00,ESE,113,2.0,5.0,34,0.00,,,0.00,236.000000,,2013-03-02 18:11:00,
2013-03-02 10:22:00,66.0,37.0,-100.00,ESE,113,2.0,5.0,34,0.00,,,0.00,236.000000,,2013-03-02 18:22:00,
2013-03-02 10:31:00,66.0,37.0,-100.00,ESE,113,2.0,5.0,34,0.00,,,0.00,236.000000,,2013-03-02 18:31:00,
2013-03-02 10:41:00,66.0,37.0,-100.00,ESE,113,2.0,5.0,34,0.00,,,0.00,236.000000,,2013-03-02 18:41:00,
2013-03-02 10:51:00,73.0,36.0,-100.00,SSE,149,2.0,5.0,26,0.00,,,0.00,637.000000,,2013-03-02 18:51:00,
2013-03-02 11:11:00,73.0,36.0,-100.00,SSE,149,2.0,5.0,26,0.00,,,0.00,637.000000,,2013-03-02 19:11:00,
2013-03-02 11:21:00,73.0,36.0,-100.00,SSE,149,2.0,5.0,26,0.00,,,0.00,637.000000,,2013-03-02 19:21:00,
2013-03-02 11:31:00,73.0,36.0,-100.00,SSE,149,2.0,5.0,26,0.00,,,0.00,637.000000,,2013-03-02 19:31:00,
2013-03-02 11:42:00,73.0,36.0,-100.00,SSE,149,2.0,5.0,26,0.00,,,0.00,637.000000,,2013-03-02 19:42:00,
2013-03-02 11:51:00,76.0,34.0,-100.00,SSW,204,2.0,7.0,22,0.00,,,0.00,537.000000,,2013-03-02 19:51:00,
2013-03-02 12:21:00,76.0,34.0,-100.00,SSW,204,2.0,7.0,22,0.00,,,0.00,537.000000,,2013-03-02 20:21:00,
2013-03-02 12:32:00,76.0,34.0,-100.00,SSW,204,2.0,7.0,22,0.00,,,0.00,537.000000,,2013-03-02 20:32:00,
2013-03-02 12:41:00,76.0,34.0,-100.00,SSW,204,2.0,7.0,22,0.00,,,0.00,537.000000,,2013-03-02 20:41:00,
2013-03-02 12:51:00,78.0,28.0,-100.00,WSW,252,4.0,9.0,16,0.00,,,0.00,544.000000,,2013-03-02 20:51:00,
2013-03-02 13:11:00,78.0,28.0,-100.00,WSW,252,4.0,9.0,16,0.00,,,0.00,544.000000,,2013-03-02 21:11:00,
2013-03-02 13:22:00,78.0,28.0,-100.00,WSW,252,4.0,9.0,16,0.00,,,0.00,544.000000,,2013-03-02 21:22:00,
2013-03-02 13:31:00,78.0,28.0,-100.00,WSW,252,4.0,9.0,16,0.00,,,0.00,544.000000,,2013-03-02 21:31:00,
2013-03-02 13:41:00,78.0,28.0,-100.00,WSW,252,4.0,9.0,16,0.00,,,0.00,544.000000,,2013-03-02 21:41:00,
2013-03-02 13:51:00,82.0,30.0,-100.00,WSW,238,4.0,14.0,15,0.00,,,0.00,778.000000,,2013-03-02 21:51:00,
2013-03-02 14:11:00,82.0,30.0,-100.00,WSW,238,4.0,14.0,15,0.00,,,0.00,778.000000,,2013-03-02 22:11:00,
2013-03-02 14:21:00,82.0,30.0,-100.00,WSW,238,4.0,14.0,15,0.00,,,0.00,778.000000,,2013-03-02 22:21:00,
2013-03-02 14:32:00,82.0,30.0,-100.00,WSW,238,4.0,14.0,15,0.00,,,0.00,778.000000,,2013-03-02 22:32:00,
2013-03-02 14:42:00,82.0,30.0,-100.00,WSW,238,4.0,14.0,15,0.00,,,0.00,778.000000,,2013-03-02 22:42:00,
2013-03-02 14:51:00,81.0,27.0,-100.00,West,260,5.0,14.0,14,0.00,,,0.00,652.000000,,2013-03-02 22:51:00,
2013-03-02 15:11:00,81.0,27.0,-100.00,West,260,5.0,14.0,14,0.00,,,0.00,652.000000,,2013-03-02 23:11:00,
2013-03-02 15:21:00,81.0,27.0,-100.00,West,260,5.0,14.0,14,0.00,,,0.00,652.000000,,2013-03-02 23:21:00,
2013-03-02 15:32:00,81.0,27.0,-100.00,West,260,5.0,14.0,14,0.00,,,0.00,652.000000,,2013-03-02 23:32:00,
2013-03-02 15:42:00,81.0,27.0,-100.00,West,260,5.0,14.0,14,0.00,,,0.00,652.000000,,2013-03-02 23:42:00,
2013-03-02 15:51:00,74.0,22.0,-100.00,SSW,204,4.0,18.0,14,0.00,,,0.00,374.000000,,2013-03-02 23:51:00,
2013-03-02 16:11:00,74.0,22.0,-100.00,SSW,204,4.0,18.0,14,0.00,,,0.00,374.000000,,2013-03-03 00:11:00,
2013-03-02 16:22:00,74.0,22.0,-100.00,SSW,204,4.0,18.0,14,0.00,,,0.00,374.000000,,2013-03-03 00:22:00,
2013-03-02 16:32:00,74.0,22.0,-100.00,SSW,204,4.0,18.0,14,0.00,,,0.00,374.000000,,2013-03-03 00:32:00,
2013-03-02 16:42:00,74.0,22.0,-100.00,SSW,204,4.0,18.0,14,0.00,,,0.00,374.000000,,2013-03-03 00:42:00,
2013-03-02 16:51:00,71.0,23.0,-100.00,NW,308,3.0,10.0,16,0.00,,,0.00,125.000000,,2013-03-03 00:51:00,
2013-03-02 17:11:00,71.0,23.0,-100.00,NW,308,3.0,10.0,16,0.00,,,0.00,125.000000,,2013-03-03 01:11:00,
2013-03-02 17:21:00,71.0,23.0,-100.00,NW,308,3.0,10.0,16,0.00,,,0.00,125.000000,,2013-03-03 01:21:00,
2013-03-02 17:31:00,71.0,23.0,-100.00,NW,308,3.0,10.0,16,0.00,,,0.00,125.000000,,2013-03-03 01:31:00,
2013-03-02 17:41:00,71.0,23.0,-100.00,NW,308,3.0,10.0,16,0.00,,,0.00,125.000000,,2013-03-03 01:41:00,
2013-03-02 17:51:00,66.0,32.0,-100.00,SW,216,1.0,5.0,28,0.00,,,0.00,33.000000,,2013-03-03 01:51:00,
2013-03-02 18:21:00,66.0,32.0,-100.00,SW,216,1.0,5.0,28,0.00,,,0.00,33.000000,,2013-03-03 02:21:00,
2013-03-02 18:31:00,66.0,32.0,-100.00,SW,216,1.0,5.0,28,0.00,,,0.00,33.000000,,2013-03-03 02:31:00,
2013-03-02 18:41:00,66.0,32.0,-100.00,SW,216,1.0,5.0,28,0.00,,,0.00,33.000000,,2013-03-03 02:41:00,
2013-03-02 18:51:00,62.0,32.0,-100.00,North,8,1.0,5.0,32,0.00,,,0.00,0.000000,,2013-03-03 02:51:00,
2013-03-02 19:11:00,62.0,32.0,-100.00,North,8,1.0,5.0,32,0.00,,,0.00,0.000000,,2013-03-03 03:11:00,
2013-03-02 19:21:00,62.0,32.0,-100.00,North,8,1.0,5.0,32,0.00,,,0.00,0.000000,,2013-03-03 03:21:00,
2013-03-02 19:31:00,62.0,32.0,-100.00,North,8,1.0,5.0,32,0.00,,,0.00,0.000000,,2013-03-03 03:31:00,
2013-03-02 19:41:00,62.0,32.0,-100.00,North,8,1.0,5.0,32,0.00,,,0.00,0.000000,,2013-03-03 03:41:00,
2013-03-02 19:51:00,60.0,31.0,-100.00,SSW,208,1.0,4.0,33,0.00,,,0.00,0.000000,,2013-03-03 03:51:00,
2013-03-02 20:11:00,60.0,31.0,-100.00,SSW,208,1.0,4.0,33,0.00,,,0.00,0.000000,,2013-03-03 04:11:00,
2013-03-02 20:21:00,60.0,31.0,-100.00,SSW,208,1.0,4.0,33,0.00,,,0.00,0.000000,,2013-03-03 04:21:00,
2013-03-02 20:31:00,60.0,31.0,-100.00,SSW,208,1.0,4.0,33,0.00,,,0.00,0.000000,,2013-03-03 04:31:00,
2013-03-02 20:41:00,60.0,31.0,-100.00,SSW,208,1.0,4.0,33,0.00,,,0.00,0.000000,,2013-03-03 04:41:00,
2013-03-02 20:51:00,59.0,31.0,-100.00,NW,326,2.0,6.0,34,0.00,,,0.00,0.000000,,2013-03-03 04:51:00,
2013-03-02 21:11:00,59.0,31.0,-100.00,NW,326,2.0,6.0,34,0.00,,,0.00,0.000000,,2013-03-03 05:11:00,
2013-03-02 21:22:00,59.0,31.0,-100.00,NW,326,2.0,6.0,34,0.00,,,0.00,0.000000,,2013-03-03 05:22:00,
2013-03-02 21:32:00,59.0,31.0,-100.00,NW,326,2.0,6.0,34,0.00,,,0.00,0.000000,,2013-03-03 05:32:00,
2013-03-02 21:42:00,59.0,31.0,-100.00,NW,326,2.0,6.0,34,0.00,,,0.00,0.000000,,2013-03-03 05:42:00,
2013-03-02 21:51:00,57.0,33.0,-100.00,WSW,238,1.0,4.0,40,0.00,,,0.00,0.000000,,2013-03-03 05:51:00,
2013-03-02 22:21:00,57.0,33.0,-100.00,WSW,238,1.0,4.0,40,0.00,,,0.00,0.000000,,2013-03-03 06:21:00,
2013-03-02 22:31:00,57.0,33.0,-100.00,WSW,238,1.0,4.0,40,0.00,,,0.00,0.000000,,2013-03-03 06:31:00,
2013-03-02 22:42:00,57.0,33.0,-100.00,WSW,238,1.0,4.0,40,0.00,,,0.00,0.000000,,2013-03-03 06:42:00,
2013-03-02 22:51:00,57.0,32.0,-100.00,SSW,206,3.0,9.0,39,0.00,,,0.00,0.000000,,2013-03-03 06:51:00,
2013-03-02 23:21:00,57.0,32.0,-100.00,SSW,206,3.0,9.0,39,0.00,,,0.00,0.000000,,2013-03-03 07:21:00,
2013-03-02 23:31:00,57.0,32.0,-100.00,SSW,206,3.0,9.0,39,0.00,,,0.00,0.000000,,2013-03-03 07:31:00,
2013-03-02 23:42:00,57.0,32.0,-100.00,SSW,206,3.0,9.0,39,0.00,,,0.00,0.000000,,2013-03-03 07:42:00,
2013-03-02 23:51:00,57.0,30.0,-100.00,SE,124,1.0,11.0,36,0.00,,,0.00,0.000000,,2013-03-03 07:51:00,